Time;durP1;ratioP1;P1;durP2;ratioP2;P2;SDS_P1;SDS_P2;PMS_P1;PMS_P2;Temp;Humidity;BMP_temperature;BMP_pressure;BME280_temperature;BME280_humidity;BME280_pressure;Samples;Min_cycle;Max_cycle;Signal;HPM_P1;HPM_P2
2022/06/23 00:01:03;;;;;;;8.18;3.70;;;;;;;14.69;68.94;98762.63;5028493;28;20513;-56
2022/06/23 00:03:33;;;;;;;6.13;4.10;;;;;;;14.67;68.91;98767.13;4994445;28;20087;-52
2022/06/23 00:06:00;;;;;;;11.15;4.28;;;;;;;14.56;69.19;98758.28;5012736;28;20045;-53
2022/06/23 00:08:26;;;;;;;4.70;3.30;;;;;;;14.59;69.22;98764.19;5026736;28;20072;-50
2022/06/23 00:11:00;;;;;;;5.90;4.00;;;;;;;14.44;69.52;98748.66;5044727;28;20411;-51
2022/06/23 00:13:35;;;;;;;11.35;4.35;;;;;;;14.49;69.60;98764.88;5030867;28;20115;-48
2022/06/23 00:16:03;;;;;;;7.45;4.00;;;;;;;14.47;69.97;98761.50;5024518;28;20042;-53
2022/06/23 00:18:37;;;;;;;7.30;4.65;;;;;;;14.45;69.96;98768.59;5029365;28;20434;-49
2022/06/23 00:21:09;;;;;;;8.27;3.50;;;;;;;14.40;70.32;98767.13;5056974;28;20095;-50
2022/06/23 00:23:42;;;;;;;6.93;3.78;;;;;;;14.37;70.42;98764.72;5024762;28;20041;-50
2022/06/23 00:26:21;;;;;;;8.50;3.60;;;;;;;14.35;70.69;98763.09;5024912;28;20075;-54
2022/06/23 00:28:48;;;;;;;5.95;3.90;;;;;;;14.31;70.79;98759.00;5043533;28;20152;-50
2022/06/23 00:31:41;;;;;;;7.10;3.50;;;;;;;14.26;70.84;98768.94;5026873;28;20092;-49
2022/06/23 00:34:22;;;;;;;8.55;4.45;;;;;;;14.24;70.73;98765.56;5027653;28;20041;-50
2022/06/23 00:36:55;;;;;;;8.38;5.05;;;;;;;14.21;70.79;98771.84;5031005;28;20061;-50
2022/06/23 00:39:31;;;;;;;6.15;3.70;;;;;;;14.18;70.89;98772.06;5022224;28;20048;-53
2022/06/23 00:41:57;;;;;;;6.55;4.50;;;;;;;14.18;71.05;98772.06;5024605;28;20062;-50
2022/06/23 00:44:45;;;;;;;10.18;4.22;;;;;;;14.15;71.40;98772.22;5025519;28;20042;-50
2022/06/23 00:47:18;;;;;;;8.15;4.97;;;;;;;14.14;71.37;98772.31;5011242;28;20044;-51
2022/06/23 00:49:54;;;;;;;7.40;3.42;;;;;;;14.13;71.56;98771.47;5044786;28;20045;-50
2022/06/23 00:52:42;;;;;;;8.65;3.95;;;;;;;14.10;71.57;98779.53;5010626;28;20084;-51
2022/06/23 00:55:52;;;;;;;12.63;5.85;;;;;;;14.09;71.34;98777.00;5025632;28;20527;-48
2022/06/23 00:58:45;;;;;;;11.80;4.40;;;;;;;14.09;71.63;98777.84;5022763;28;20068;-48
2022/06/23 01:01:14;;;;;;;9.57;5.50;;;;;;;14.07;71.39;98782.34;5018230;28;20140;-51
2022/06/23 01:03:52;;;;;;;8.60;3.63;;;;;;;14.07;71.76;98781.50;5025958;28;20075;-49
2022/06/23 01:06:29;;;;;;;8.30;3.90;;;;;;;13.97;71.67;98769.00;5005959;28;20513;-49
2022/06/23 01:08:59;;;;;;;11.02;5.13;;;;;;;14.06;71.85;98783.28;5011265;28;20084;-52
2022/06/23 01:11:38;;;;;;;10.00;5.32;;;;;;;14.06;72.09;98791.13;5018860;28;20041;-52
2022/06/23 01:14:20;;;;;;;10.35;4.30;;;;;;;14.07;72.13;98786.72;5018740;28;20045;-50
2022/06/23 01:16:56;;;;;;;10.30;4.90;;;;;;;14.07;72.25;98800.63;5021402;28;20520;-52
2022/06/23 01:20:07;;;;;;;7.65;4.47;;;;;;;14.07;72.29;98791.94;5026085;28;20045;-55
2022/06/23 01:22:45;;;;;;;7.25;4.30;;;;;;;14.05;72.10;98794.66;5022043;28;20045;-50
2022/06/23 01:25:40;;;;;;;11.32;4.75;;;;;;;14.05;72.31;98802.50;5060909;28;20127;-51
2022/06/23 01:28:25;;;;;;;11.43;4.75;;;;;;;14.05;72.26;98812.94;5015694;28;20038;-50
2022/06/23 01:31:05;;;;;;;10.40;4.90;;;;;;;14.05;72.45;98812.09;5021586;28;20464;-52
2022/06/23 01:33:52;;;;;;;15.15;4.68;;;;;;;14.04;72.57;98813.88;5037348;28;20038;-50
2022/06/23 01:36:17;;;;;;;7.65;4.05;;;;;;;14.05;72.32;98810.34;5028749;28;20045;-52
2022/06/23 01:39:01;;;;;;;10.82;4.63;;;;;;;14.04;72.63;98815.66;5016047;28;20049;-48
2022/06/23 01:41:42;;;;;;;6.50;3.97;;;;;;;14.05;72.66;98818.19;5033628;28;20063;-51
2022/06/23 01:44:20;;;;;;;9.93;3.75;;;;;;;14.05;72.64;98814.72;5031761;28;20037;-54
2022/06/23 01:46:49;;;;;;;15.35;7.63;;;;;;;14.05;72.74;98819.94;5032303;28;20044;-53
2022/06/23 01:49:28;;;;;;;9.53;4.27;;;;;;;14.05;72.63;98825.16;5065511;28;20045;-52
2022/06/23 01:52:01;;;;;;;6.75;4.63;;;;;;;14.06;72.62;98816.41;5007618;28;20042;-51
2022/06/23 01:54:31;;;;;;;9.48;3.78;;;;;;;14.04;72.64;98824.34;5032302;28;20041;-50
2022/06/23 01:57:02;;;;;;;10.55;4.35;;;;;;;14.07;72.58;98834.63;5048572;28;20037;-52
2022/06/23 01:59:47;;;;;;;12.70;6.60;;;;;;;14.07;73.02;98829.38;5016704;28;20042;-50
2022/06/23 02:02:19;;;;;;;12.90;5.63;;;;;;;14.09;72.92;98834.50;5024599;28;20049;-51
2022/06/23 02:05:11;;;;;;;6.15;3.88;;;;;;;14.10;73.06;98825.72;5020658;28;20120;-51
2022/06/23 02:07:40;;;;;;;13.35;4.47;;;;;;;14.10;73.16;98834.41;5022144;28;20577;-53
2022/06/23 02:10:23;;;;;;;9.98;5.03;;;;;;;14.11;73.14;98840.47;5002719;28;20517;-52
2022/06/23 02:12:57;;;;;;;4.75;3.15;;;;;;;14.14;73.04;98848.13;5028858;28;20048;-51
2022/06/23 02:16:01;;;;;;;11.98;3.85;;;;;;;14.14;73.14;98850.72;5018181;28;20046;-50
2022/06/23 02:18:45;;;;;;;15.27;5.43;;;;;;;14.16;72.79;98852.34;5014245;28;20552;-50
2022/06/23 02:21:19;;;;;;;6.70;4.25;;;;;;;14.20;72.89;98852.97;5020246;28;20513;-53
2022/06/23 02:23:54;;;;;;;9.15;4.10;;;;;;;14.23;72.67;98861.47;5022090;28;20045;-51
2022/06/23 02:26:44;;;;;;;10.10;4.20;;;;;;;14.18;72.35;98845.25;5027252;28;20046;-54
2022/06/23 02:29:23;;;;;;;9.85;4.18;;;;;;;14.30;72.52;98865.38;5021815;28;20048;-51
2022/06/23 02:31:56;;;;;;;8.48;3.75;;;;;;;14.32;72.20;98866.13;5031345;28;20037;-53
2022/06/23 02:35:02;;;;;;;10.73;3.78;;;;;;;14.37;72.15;98878.94;5015526;28;20099;-52
2022/06/23 02:37:51;;;;;;;8.65;3.78;;;;;;;14.38;72.00;98881.47;5030883;28;20133;-50
2022/06/23 02:40:33;;;;;;;5.00;2.97;;;;;;;14.35;71.78;98870.31;5053247;28;20045;-53
2022/06/23 02:43:03;;;;;;;8.52;3.63;;;;;;;14.35;71.86;98871.16;5023695;28;20528;-54
2022/06/23 02:45:54;;;;;;;6.93;3.65;;;;;;;14.47;71.67;98887.91;5012007;28;20046;-52
2022/06/23 02:48:49;;;;;;;8.90;5.00;;;;;;;14.46;71.49;98882.75;5029057;28;20049;-51
2022/06/23 02:51:26;;;;;;;5.18;3.38;;;;;;;14.55;71.29;98895.28;5032719;28;20045;-53
2022/06/23 02:54:09;;;;;;;9.05;3.13;;;;;;;14.57;71.08;98899.44;5014336;28;20145;-52
2022/06/23 02:57:00;;;;;;;4.30;2.60;;;;;;;14.61;71.25;98894.84;5022019;28;20073;-54
2022/06/23 02:59:57;;;;;;;6.65;3.30;;;;;;;14.65;71.07;98904.22;5064026;28;20587;-52
2022/06/23 03:02:34;;;;;;;4.85;2.72;;;;;;;14.69;70.85;98905.69;5046336;28;20049;-52
2022/06/23 03:05:07;;;;;;;3.85;2.78;;;;;;;14.72;71.00;98903.72;5012855;28;20041;-55
2022/06/23 03:07:58;;;;;;;4.88;2.15;;;;;;;14.77;71.02;98917.34;5046990;28;20053;-52
2022/06/23 03:10:38;;;;;;;3.88;2.63;;;;;;;14.82;70.75;98911.81;5015566;28;20056;-52
2022/06/23 03:13:16;;;;;;;3.60;1.90;;;;;;;14.79;70.25;98912.88;5017279;28;20073;-52
2022/06/23 03:16:23;;;;;;;5.60;2.58;;;;;;;14.89;70.21;98915.72;5022143;28;20120;-51
2022/06/23 03:18:52;;;;;;;3.97;2.63;;;;;;;14.93;69.90;98919.81;5030611;28;20072;-50
2022/06/23 03:21:24;;;;;;;6.15;2.60;;;;;;;14.97;69.85;98925.72;5032297;28;20572;-53
2022/06/23 03:24:13;;;;;;;9.63;2.70;;;;;;;15.00;69.88;98920.28;5014207;28;20045;-47
2022/06/23 03:27:03;;;;;;;3.08;2.08;;;;;;;15.06;69.56;98922.50;5011754;28;20474;-52
2022/06/23 03:29:34;;;;;;;3.90;2.28;;;;;;;15.09;69.37;98923.13;5044771;28;20095;-49
2022/06/23 03:32:06;;;;;;;5.47;2.70;;;;;;;15.15;68.85;98927.13;5021233;28;20037;-53
2022/06/23 03:34:38;;;;;;;6.90;2.60;;;;;;;15.18;68.50;98922.53;5012102;28;20042;-53
2022/06/23 03:37:25;;;;;;;5.35;2.38;;;;;;;15.24;68.41;98929.97;5017659;28;20125;-55
2022/06/23 03:43:27;;;;;;;6.13;2.33;;;;;;;15.35;67.84;98937.13;5024581;28;20056;-52
2022/06/23 03:46:17;;;;;;;6.25;2.55;;;;;;;15.42;67.51;98942.81;5022291;28;20049;-54
2022/06/23 03:48:57;;;;;;;4.20;2.25;;;;;;;15.46;67.53;98936.44;5012538;28;20459;-53
2022/06/23 03:51:40;;;;;;;4.28;2.00;;;;;;;15.51;66.98;98939.59;4993459;28;20084;-53
2022/06/23 03:54:39;;;;;;;5.50;2.22;;;;;;;15.56;66.92;98948.00;5012817;28;20051;-51
2022/06/23 03:57:23;;;;;;;6.22;2.30;;;;;;;15.61;66.44;98944.16;4993636;28;20238;-59
2022/06/23 04:00:00;;;;;;;9.70;2.67;;;;;;;15.67;66.62;98945.53;5017221;28;20049;-51
2022/06/23 04:02:40;;;;;;;7.25;2.22;;;;;;;15.72;66.54;98950.44;5011390;28;20084;-52
2022/06/23 04:05:06;;;;;;;9.73;1.98;;;;;;;15.78;66.09;98936.94;5010859;28;20073;-58
2022/06/23 04:07:44;;;;;;;5.57;2.10;;;;;;;15.84;65.79;98952.25;5020628;28;20112;-51
2022/06/23 04:10:25;;;;;;;7.18;2.30;;;;;;;15.89;65.75;98950.16;4994550;28;20048;-56
2022/06/23 04:12:56;;;;;;;9.85;2.33;;;;;;;15.94;65.42;98961.19;4987280;28;20046;-53
2022/06/23 04:15:35;;;;;;;6.20;2.50;;;;;;;16.00;65.22;98956.38;4978127;28;20053;-51
2022/06/23 04:18:05;;;;;;;4.70;2.00;;;;;;;15.98;65.29;98945.13;5007544;28;20509;-54
2022/06/23 04:20:44;;;;;;;6.63;2.20;;;;;;;16.08;64.87;98964.53;5012876;28;20162;-51
2022/06/23 04:23:15;;;;;;;4.30;1.83;;;;;;;16.16;64.51;98971.91;5013950;28;20117;-53
2022/06/23 04:25:46;;;;;;;5.60;1.83;;;;;;;16.21;64.28;98969.78;5029992;28;20041;-49
2022/06/23 04:28:39;;;;;;;2.00;1.65;;;;;;;16.28;63.74;98973.66;5012735;28;20053;-54
2022/06/23 04:31:07;;;;;;;6.22;2.30;;;;;;;16.35;63.66;98977.53;4989470;28;20421;-52
2022/06/23 04:33:40;;;;;;;4.78;2.10;;;;;;;16.42;63.84;98985.84;5040261;28;20123;-51
2022/06/23 04:36:18;;;;;;;4.18;1.80;;;;;;;16.50;63.38;98986.97;5015471;28;20099;-54
2022/06/23 04:38:49;;;;;;;2.55;1.67;;;;;;;16.56;63.11;98988.34;5009218;28;20117;-57
2022/06/23 04:41:27;;;;;;;3.95;1.85;;;;;;;16.62;62.74;98990.56;4981336;28;20050;-52
2022/06/23 04:43:58;;;;;;;5.75;1.63;;;;;;;16.68;62.77;98987.53;5007568;28;20038;-53
2022/06/23 04:46:40;;;;;;;8.50;1.98;;;;;;;16.73;61.90;98977.53;4993882;28;20124;-51
2022/06/23 04:49:39;;;;;;;3.92;2.00;;;;;;;16.84;61.71;98987.28;5011996;28;20437;-56
2022/06/23 04:52:18;;;;;;;2.33;1.60;;;;;;;16.89;61.24;98980.75;4987172;28;20073;-53
2022/06/23 04:55:09;;;;;;;2.90;1.55;;;;;;;17.01;60.54;98981.63;5032449;28;20112;-57
2022/06/23 04:57:58;;;;;;;4.65;1.80;;;;;;;17.09;60.41;98984.56;5011287;28;20535;-51
2022/06/23 05:00:30;;;;;;;6.88;1.73;;;;;;;17.18;60.45;98988.31;5011031;28;20046;-55
2022/06/23 05:03:12;;;;;;;2.25;1.52;;;;;;;17.24;60.16;98985.25;5012144;28;20476;-53
2022/06/23 05:05:38;;;;;;;3.38;1.83;;;;;;;17.30;59.86;98990.88;5006934;28;20094;-56
2022/06/23 05:08:07;;;;;;;4.68;1.67;;;;;;;17.37;59.52;98988.66;5028441;28;20048;-55
2022/06/23 05:11:00;;;;;;;3.45;1.73;;;;;;;17.45;59.02;98991.56;5016811;28;20048;-52
2022/06/23 05:13:30;;;;;;;2.80;1.60;;;;;;;17.52;58.64;98979.66;5009092;28;20085;-53
2022/06/23 05:16:07;;;;;;;1.88;1.35;;;;;;;17.60;58.25;98985.19;5015880;28;20060;-52
2022/06/23 05:18:38;;;;;;;4.07;1.50;;;;;;;17.68;58.33;98985.47;5029965;28;20049;-51
2022/06/23 05:21:10;;;;;;;6.47;1.55;;;;;;;17.79;57.86;98985.50;5028595;28;20505;-51
2022/06/23 05:23:40;;;;;;;4.07;1.75;;;;;;;17.90;57.72;98982.06;5017144;28;20049;-54
2022/06/23 05:26:12;;;;;;;5.53;1.80;;;;;;;18.00;57.03;98990.97;5027763;28;20552;-51
2022/06/23 05:28:38;;;;;;;10.50;2.50;;;;;;;18.04;56.63;98970.50;4994841;28;20124;-52
2022/06/23 05:31:09;;;;;;;3.10;1.50;;;;;;;18.24;56.11;98984.75;5019008;28;20180;-51
2022/06/23 05:33:37;;;;;;;4.15;1.50;;;;;;;18.34;55.46;98985.72;5014183;28;20506;-54
2022/06/23 05:36:16;;;;;;;6.53;1.20;;;;;;;18.45;54.42;98985.75;5019861;28;20041;-51
2022/06/23 05:38:47;;;;;;;4.13;2.15;;;;;;;18.57;53.82;98990.94;4996692;28;20081;-52
2022/06/23 05:41:19;;;;;;;3.22;1.90;;;;;;;18.70;53.85;99003.13;5021004;28;20041;-53
2022/06/23 05:43:46;;;;;;;9.20;4.10;;;;;;;18.83;53.61;99006.47;5026927;28;20211;-51
2022/06/23 05:46:18;;;;;;;6.15;1.60;;;;;;;18.93;53.34;99003.00;5060075;28;20638;-50
2022/06/23 05:48:47;;;;;;;4.93;1.55;;;;;;;19.03;52.88;99003.09;5024920;28;20548;-53
2022/06/23 05:51:20;;;;;;;11.35;3.92;;;;;;;19.13;52.87;99008.47;5020124;28;20045;-54
2022/06/23 05:54:06;;;;;;;4.80;2.08;;;;;;;19.26;51.84;99009.16;5024070;28;20571;-52
2022/06/23 05:56:49;;;;;;;7.60;3.20;;;;;;;19.31;51.16;98991.19;5024402;28;20042;-53
2022/06/23 05:59:33;;;;;;;3.97;1.70;;;;;;;19.49;50.64;99013.44;5027848;28;20041;-54
2022/06/23 06:02:06;;;;;;;3.38;1.75;;;;;;;19.61;49.80;99006.31;5021697;28;20064;-51
2022/06/23 06:04:37;;;;;;;5.32;1.98;;;;;;;19.74;49.68;99009.59;5027849;28;20045;-53
2022/06/23 06:07:03;;;;;;;3.33;1.42;;;;;;;19.82;49.33;99010.66;5035996;28;20037;-52
2022/06/23 06:09:36;;;;;;;8.43;1.83;;;;;;;19.82;49.13;99004.56;5026356;28;20128;-54
2022/06/23 06:12:22;;;;;;;4.70;1.40;;;;;;;19.98;48.74;99010.22;5027386;28;20064;-51
2022/06/23 06:14:58;;;;;;;4.60;1.38;;;;;;;20.05;48.66;99019.28;5028716;28;20041;-53
2022/06/23 06:17:26;;;;;;;3.60;1.30;;;;;;;20.12;48.61;99012.53;5028557;28;20041;-53
2022/06/23 06:19:53;;;;;;;2.70;1.50;;;;;;;20.23;48.34;99019.56;5027749;28;20571;-59
2022/06/23 06:22:40;;;;;;;2.00;1.70;;;;;;;20.39;47.75;99019.13;5028033;28;20029;-51
2022/06/23 06:25:09;;;;;;;2.25;1.42;;;;;;;20.51;46.98;99016.28;5032957;28;20513;-55
2022/06/23 06:27:37;;;;;;;5.15;2.40;;;;;;;20.66;47.20;99016.75;5030389;28;20033;-54
2022/06/23 06:30:03;;;;;;;6.10;1.90;;;;;;;20.80;47.40;99011.09;5057897;28;20433;-57
2022/06/23 06:32:37;;;;;;;1.95;1.80;;;;;;;20.98;47.25;99016.59;5027685;28;20060;-54
2022/06/23 06:35:29;;;;;;;5.30;1.60;;;;;;;21.19;46.08;99014.75;5013782;28;20081;-48
2022/06/23 06:38:04;;;;;;;2.50;1.52;;;;;;;21.36;45.56;99010.59;5029468;28;20128;-54
2022/06/23 06:40:32;;;;;;;3.20;1.73;;;;;;;21.60;44.84;99018.13;5027061;28;20513;-51
2022/06/23 06:43:03;;;;;;;6.43;1.88;;;;;;;22.00;43.72;99018.84;5023195;28;20048;-52
2022/06/23 06:45:33;;;;;;;9.45;1.50;;;;;;;22.81;42.23;99025.38;5036217;28;20042;-58
2022/06/23 06:47:58;;;;;;;3.05;1.70;;;;;;;23.75;41.07;99024.13;5023086;28;20152;-55
2022/06/23 06:50:37;;;;;;;4.85;3.00;;;;;;;25.00;38.03;99024.69;5032126;28;20120;-55
2022/06/23 06:53:13;;;;;;;4.03;2.22;;;;;;;26.20;35.96;99003.75;5029555;28;20120;-53
2022/06/23 06:55:46;;;;;;;4.03;2.25;;;;;;;27.44;34.70;99019.03;5027803;28;20045;-55
2022/06/23 06:58:31;;;;;;;1.95;1.60;;;;;;;28.70;32.48;99025.53;5028950;28;20091;-48
2022/06/23 07:01:07;;;;;;;2.00;1.70;;;;;;;29.86;30.60;99028.19;5063106;28;20144;-48
2022/06/23 07:03:35;;;;;;;7.30;1.60;;;;;;;31.03;28.77;99032.03;5060900;28;20037;-48
2022/06/23 07:06:09;;;;;;;2.13;1.60;;;;;;;31.99;27.13;99025.50;5030295;28;20041;-48
2022/06/23 07:08:40;;;;;;;6.22;1.60;;;;;;;33.02;25.12;99029.34;5028209;28;20568;-49
2022/06/23 07:11:14;;;;;;;7.95;2.22;;;;;;;34.04;24.07;99029.25;5026611;28;20145;-48
2022/06/23 07:14:03;;;;;;;2.72;1.75;;;;;;;35.08;22.41;99039.28;5031743;28;20049;-49
2022/06/23 07:16:39;;;;;;;6.57;1.85;;;;;;;35.95;21.71;99021.72;5029170;28;20064;-51
2022/06/23 07:19:37;;;;;;;3.10;1.60;;;;;;;36.85;20.76;99038.50;5003757;28;20461;-46
2022/06/23 07:22:14;;;;;;;3.65;2.30;;;;;;;37.38;19.18;99038.28;5021271;28;20122;-52
2022/06/23 07:24:53;;;;;;;5.90;3.80;;;;;;;38.04;18.56;99034.94;5029666;28;20037;-47
2022/06/23 07:27:36;;;;;;;7.28;4.88;;;;;;;38.69;17.90;99042.47;5025130;28;20037;-49
2022/06/23 07:30:06;;;;;;;5.28;1.80;;;;;;;39.02;17.38;99044.31;5031806;28;20132;-54
2022/06/23 07:32:37;;;;;;;6.80;2.03;;;;;;;39.52;17.38;99046.03;5011831;28;20049;-54
2022/06/23 07:35:21;;;;;;;4.53;2.60;;;;;;;40.06;16.60;99042.22;5026986;28;20050;-53
2022/06/23 07:38:19;;;;;;;5.03;2.13;;;;;;;40.56;16.15;99047.28;5031156;28;20041;-50
2022/06/23 07:40:54;;;;;;;8.27;3.33;;;;;;;41.05;16.07;99049.78;5028574;28;20145;-47
2022/06/23 07:43:22;;;;;;;6.13;2.63;;;;;;;41.28;15.43;99046.59;5009747;28;20053;-49
2022/06/23 07:45:55;;;;;;;;;;;;;;;41.51;15.76;99058.97;5011122;28;20505;-53
2022/06/23 07:48:22;;;;;;;6.88;2.80;;;;;;;41.90;15.14;99056.63;5035939;28;20019;-51
2022/06/23 07:50:48;;;;;;;8.50;3.95;;;;;;;42.19;15.02;99054.16;5029812;28;20144;-52
2022/06/23 07:53:19;;;;;;;4.60;2.25;;;;;;;42.56;14.15;99057.44;5030290;28;20197;-48
2022/06/23 07:55:47;;;;;;;16.02;4.90;;;;;;;42.95;14.13;99054.09;5011269;28;20472;-51
2022/06/23 07:58:14;;;;;;;4.10;2.58;;;;;;;42.92;13.57;99039.03;5028242;28;20041;-53
2022/06/23 08:00:42;;;;;;;5.10;2.20;;;;;;;43.03;13.75;99054.31;5014474;28;20085;-52
2022/06/23 08:03:14;;;;;;;2.95;2.45;;;;;;;43.26;13.75;99057.53;5033640;28;20465;-52
2022/06/23 08:05:44;;;;;;;2.08;1.98;;;;;;;43.37;12.91;99049.00;5018946;28;20425;-50
2022/06/23 08:08:12;;;;;;;6.25;2.47;;;;;;;43.41;13.29;99044.59;5027538;28;20037;-49
2022/06/23 08:10:39;;;;;;;7.00;3.00;;;;;;;43.41;13.00;99055.56;5020394;28;20052;-49
2022/06/23 08:13:10;;;;;;;4.13;2.50;;;;;;;43.54;12.67;99059.63;5027530;28;20033;-50
2022/06/23 08:18:52;;;;;;;13.00;4.07;;;;;;;44.06;12.27;99066.41;5041742;28;20122;-53
2022/06/23 08:21:28;;;;;;;9.27;5.15;;;;;;;44.17;12.76;99057.00;5025044;28;20406;-54
2022/06/23 08:24:00;;;;;;;3.27;2.40;;;;;;;44.64;12.15;99059.88;5027293;28;20147;-52
2022/06/23 08:26:26;;;;;;;7.78;5.40;;;;;;;44.70;12.02;99060.66;5020863;28;20135;-55
2022/06/23 08:28:57;;;;;;;3.53;2.97;;;;;;;44.87;11.34;99063.75;5011811;28;20140;-51
2022/06/23 08:31:23;;;;;;;21.73;10.18;;;;;;;44.98;11.65;99064.44;5029942;28;20037;-54
2022/06/23 08:33:50;;;;;;;8.53;5.00;;;;;;;45.33;11.79;99068.72;5029845;28;20041;-53
2022/06/23 08:36:20;;;;;;;6.07;4.13;;;;;;;45.58;11.69;99059.34;5029317;28;20335;-52
2022/06/23 08:38:51;;;;;;;8.85;4.20;;;;;;;45.71;11.56;99073.13;5029949;28;20049;-52
2022/06/23 08:41:20;;;;;;;7.30;3.53;;;;;;;45.62;11.01;99074.09;5028669;28;20044;-51
2022/06/23 08:44:07;;;;;;;8.20;4.13;;;;;;;45.68;11.33;99062.75;5029303;28;20049;-53
2022/06/23 08:46:39;;;;;;;6.70;5.47;;;;;;;45.67;11.38;99072.09;5030559;28;20471;-51
2022/06/23 08:49:20;;;;;;;3.63;2.97;;;;;;;45.76;10.90;99062.06;5029173;28;20144;-49
2022/06/23 08:51:53;;;;;;;7.38;2.60;;;;;;;45.82;10.77;99069.16;5024325;28;20468;-50
2022/06/23 08:54:19;;;;;;;7.13;4.93;;;;;;;45.76;10.82;99075.00;5030182;28;20555;-51
2022/06/23 08:56:53;;;;;;;6.82;4.22;;;;;;;45.89;10.91;99068.78;5030023;28;20041;-48
2022/06/23 08:59:28;;;;;;;21.52;11.30;;;;;;;46.00;10.91;99064.75;5030123;28;20037;-51
2022/06/23 09:02:14;;;;;;;10.77;5.97;;;;;;;46.27;10.55;99059.34;5005278;28;20049;-53
2022/06/23 09:04:49;;;;;;;;;;;;;;;46.54;10.95;99063.31;5009760;28;20038;-50
2022/06/23 09:07:24;;;;;;;15.73;7.70;;;;;;;46.48;10.80;99081.81;5026138;28;19917;-50
2022/06/23 09:09:58;;;;;;;3.40;2.88;;;;;;;46.33;10.23;99066.41;5024700;28;20042;-53
2022/06/23 09:12:48;;;;;;;17.65;13.68;;;;;;;46.50;10.46;99074.09;5024045;28;20877;-54
2022/06/23 09:15:36;;;;;;;3.40;3.10;;;;;;;46.33;10.43;99073.84;5026659;28;20056;-52
2022/06/23 09:18:20;;;;;;;5.97;4.13;;;;;;;46.26;10.34;99077.00;5029159;28;20042;-52
2022/06/23 09:20:58;;;;;;;6.13;3.70;;;;;;;46.51;10.47;99078.47;5027361;28;20133;-52
2022/06/23 09:23:49;;;;;;;5.80;5.28;;;;;;;46.60;10.60;99073.94;5029097;28;20041;-52
2022/06/23 09:26:29;;;;;;;6.38;5.30;;;;;;;46.74;10.64;99080.25;5027611;28;20082;-52
2022/06/23 09:28:58;;;;;;;5.10;3.50;;;;;;;47.03;10.18;99077.25;5027313;28;20049;-48
2022/06/23 09:31:39;;;;;;;5.93;3.75;;;;;;;47.26;10.19;99085.59;5027894;28;20136;-52
2022/06/23 09:34:20;;;;;;;5.88;3.75;;;;;;;47.14;10.17;99088.88;5030021;28;20041;-55
2022/06/23 09:37:04;;;;;;;5.63;5.10;;;;;;;47.07;10.42;99088.47;5032095;28;20045;-51
2022/06/23 09:39:48;;;;;;;11.55;4.20;;;;;;;47.05;10.37;99085.22;5027990;28;20047;-50
2022/06/23 09:42:44;;;;;;;4.63;3.35;;;;;;;47.09;10.39;99087.03;5027907;28;20456;-50
2022/06/23 09:45:19;;;;;;;4.80;3.63;;;;;;;47.12;10.32;99083.66;5029148;28;20029;-53
2022/06/23 09:48:23;;;;;;;9.20;5.68;;;;;;;47.08;10.70;99088.16;5026774;28;20124;-52
2022/06/23 09:50:51;;;;;;;5.20;4.32;;;;;;;47.12;10.49;99091.94;5017849;28;20103;-49
2022/06/23 09:53:42;;;;;;;4.00;3.70;;;;;;;47.25;10.19;99097.75;5023733;28;20048;-57
2022/06/23 09:56:29;;;;;;;3.58;3.30;;;;;;;47.31;9.84;99102.06;5025912;28;20145;-52
2022/06/23 09:59:04;;;;;;;4.35;4.05;;;;;;;47.14;9.67;99091.63;5028362;28;20077;-51
2022/06/23 10:01:41;;;;;;;5.07;4.00;;;;;;;47.01;10.13;99096.00;5031477;28;20060;-52
2022/06/23 10:04:31;;;;;;;9.13;4.75;;;;;;;47.02;10.39;99091.31;5032386;28;20080;-52
2022/06/23 10:07:00;;;;;;;5.78;4.88;;;;;;;46.98;10.79;99084.78;5031255;28;20033;-54
2022/06/23 10:09:45;;;;;;;6.25;5.65;;;;;;;46.91;10.33;99078.88;5031810;28;20042;-52
2022/06/23 10:12:28;;;;;;;3.50;3.30;;;;;;;46.84;10.22;99076.53;5032998;28;20088;-52
2022/06/23 10:15:14;;;;;;;3.65;3.10;;;;;;;46.65;10.11;99073.03;5032452;28;20179;-52
2022/06/23 10:17:40;;;;;;;;;;;;;;;46.60;10.18;99081.38;5031733;28;20069;-55
2022/06/23 10:20:24;;;;;;;3.90;3.23;;;;;;;46.65;10.63;99079.34;5024767;28;19968;-55
2022/06/23 10:23:27;;;;;;;4.25;3.20;;;;;;;46.78;10.42;99083.25;5026173;28;20041;-54
2022/06/23 10:26:08;;;;;;;9.20;3.42;;;;;;;46.76;10.38;99088.22;5036656;28;20179;-49
2022/06/23 10:28:57;;;;;;;45.55;40.67;;;;;;;46.92;10.67;99086.00;5041172;28;20458;-52
2022/06/23 10:31:37;;;;;;;5.78;3.67;;;;;;;47.07;10.48;99080.19;5034569;28;20041;-56
2022/06/23 10:34:17;;;;;;;6.45;4.00;;;;;;;46.97;10.78;99070.22;5024718;28;20473;-52
2022/06/23 10:37:08;;;;;;;5.55;3.28;;;;;;;47.09;10.74;99077.97;5032018;28;20041;-51
2022/06/23 10:39:33;;;;;;;5.68;5.13;;;;;;;46.97;10.53;99074.91;5030520;28;20128;-50
2022/06/23 10:42:18;;;;;;;3.78;3.47;;;;;;;46.72;10.24;99070.69;5028562;28;20620;-52
2022/06/23 10:45:06;;;;;;;4.55;3.40;;;;;;;46.55;10.63;99075.97;5033723;28;20068;-52
2022/06/23 10:48:00;;;;;;;7.03;3.35;;;;;;;46.60;10.70;99076.69;5032091;28;20501;-52
2022/06/23 10:50:59;;;;;;;3.63;3.30;;;;;;;46.60;10.63;99075.88;5023052;28;20049;-54
2022/06/23 10:53:45;;;;;;;10.20;6.13;;;;;;;46.58;10.78;99076.19;5029911;28;20079;-55
2022/06/23 10:56:27;;;;;;;7.28;6.57;;;;;;;46.61;10.57;99072.81;5031774;28;20046;-49
2022/06/23 10:59:04;;;;;;;3.83;3.10;;;;;;;46.59;10.22;99079.72;5030931;28;20129;-53
2022/06/23 11:01:48;;;;;;;3.67;3.38;;;;;;;46.45;10.46;99081.63;5029907;28;20458;-51
2022/06/23 11:04:29;;;;;;;5.70;3.10;;;;;;;46.48;10.17;99084.56;5030231;28;20048;-53
2022/06/23 11:07:16;;;;;;;6.70;5.32;;;;;;;46.49;10.27;99085.38;5031157;28;20548;-49
2022/06/23 11:09:55;;;;;;;3.92;3.50;;;;;;;46.52;10.57;99084.81;5027123;28;20036;-51
2022/06/23 11:12:58;;;;;;;4.63;3.70;;;;;;;46.62;11.01;99082.72;5029892;28;20053;-49
2022/06/23 11:15:39;;;;;;;5.95;3.30;;;;;;;46.58;10.68;99072.63;5029220;28;20570;-51
2022/06/23 11:18:30;;;;;;;4.65;3.40;;;;;;;46.74;11.13;99079.47;5030145;28;20044;-48
2022/06/23 11:21:21;;;;;;;7.05;3.50;;;;;;;46.80;10.85;99067.22;5041020;28;20038;-51
2022/06/23 11:24:02;;;;;;;5.05;3.95;;;;;;;46.58;10.97;99081.69;5037587;28;20421;-54
2022/06/23 11:26:42;;;;;;;6.07;3.30;;;;;;;46.64;10.20;99077.69;5029115;28;20440;-53
2022/06/23 11:29:43;;;;;;;4.93;3.90;;;;;;;46.77;10.52;99076.09;5029711;28;20041;-52
2022/06/23 11:32:16;;;;;;;4.38;3.97;;;;;;;46.69;10.26;99072.09;4980059;28;20041;-54
2022/06/23 11:34:42;;;;;;;6.82;4.22;;;;;;;46.88;10.76;99085.78;5028436;28;20522;-51
2022/06/23 11:37:35;;;;;;;11.10;4.68;;;;;;;46.83;10.75;99083.13;5032744;28;20057;-51
2022/06/23 11:40:23;;;;;;;8.50;3.92;;;;;;;46.70;10.78;99082.00;5042089;28;20048;-53
2022/06/23 11:43:18;;;;;;;5.10;4.55;;;;;;;46.72;10.40;99074.25;5029867;28;20165;-53
2022/06/23 11:46:08;;;;;;;23.58;17.80;;;;;;;46.78;10.72;99083.25;5028192;28;20134;-52
2022/06/23 11:48:49;;;;;;;4.68;4.30;;;;;;;46.75;10.47;99081.06;5029646;28;20077;-60
2022/06/23 11:51:32;;;;;;;12.73;7.38;;;;;;;46.55;10.71;99081.47;5031195;28;20079;-54
2022/06/23 11:54:32;;;;;;;5.97;3.72;;;;;;;46.35;10.84;99072.44;5030224;28;20519;-51
2022/06/23 11:57:15;;;;;;;5.43;4.53;;;;;;;46.38;10.59;99078.47;5027516;28;20044;-53
2022/06/23 12:00:02;;;;;;;5.18;4.60;;;;;;;46.40;10.72;99076.22;5030742;28;20060;-50
2022/06/23 12:03:05;;;;;;;4.10;3.70;;;;;;;46.35;10.25;99086.19;5031004;28;20038;-52
2022/06/23 12:05:37;;;;;;;4.68;4.28;;;;;;;46.28;10.74;99082.19;5030417;28;20155;-54
2022/06/23 12:08:14;;;;;;;6.38;3.90;;;;;;;46.30;10.87;99086.28;5029555;28;20041;-57
2022/06/23 12:10:40;;;;;;;7.03;4.38;;;;;;;46.24;10.89;99086.66;5029279;28;20083;-53
2022/06/23 12:13:07;;;;;;;3.83;3.47;;;;;;;46.18;10.55;99085.09;5030449;28;20052;-51
2022/06/23 12:15:46;;;;;;;7.65;5.03;;;;;;;46.00;10.96;99081.25;5030326;28;21808;-53
2022/06/23 12:18:15;;;;;;;11.02;7.43;;;;;;;45.85;10.99;99084.25;4997641;28;20564;-51
2022/06/23 12:20:49;;;;;;;4.93;3.70;;;;;;;45.50;11.41;99078.09;5013408;28;20851;-51
2022/06/23 12:23:53;;;;;;;16.40;9.57;;;;;;;45.32;11.55;99078.88;5028501;28;20512;-52
2022/06/23 12:26:27;;;;;;;6.80;3.90;;;;;;;45.51;11.62;99076.19;5029792;28;20099;-49
2022/06/23 12:29:25;;;;;;;8.30;3.83;;;;;;;45.48;11.32;99076.78;5012966;28;20099;-52
2022/06/23 12:32:00;;;;;;;4.60;3.53;;;;;;;45.35;11.03;99075.53;5025644;28;20049;-53